createdAt,value
2018-01-14T00:00:57.504Z,5.70
2018-01-14T00:03:24.998Z,5.60
2018-01-14T00:05:53.282Z,5.60
2018-01-14T00:08:20.840Z,5.60
2018-01-14T00:10:48.374Z,5.60
2018-01-14T00:13:15.886Z,5.60
2018-01-14T00:15:43.493Z,5.60
2018-01-14T00:18:11.038Z,5.50
2018-01-14T00:20:38.562Z,5.50
2018-01-14T00:23:06.204Z,5.60
2018-01-14T00:25:33.886Z,5.60
2018-01-14T00:28:01.419Z,5.50
2018-01-14T00:30:28.973Z,5.50
2018-01-14T00:32:56.517Z,5.50
2018-01-14T00:35:24.872Z,5.40
2018-01-14T00:37:52.402Z,5.40
2018-01-14T00:40:19.897Z,5.40
2018-01-14T00:42:47.444Z,5.40
2018-01-14T00:45:15.101Z,5.30
2018-01-14T00:47:42.670Z,5.40
2018-01-14T00:50:10.242Z,5.40
2018-01-14T00:52:37.761Z,5.30
2018-01-14T00:55:05.324Z,5.20
2018-01-14T00:57:32.894Z,5.20
2018-01-14T01:00:00.417Z,5.20
2018-01-14T01:02:28.047Z,5.10
2018-01-14T01:04:55.561Z,5.20
2018-01-14T01:07:23.063Z,5.20
2018-01-14T01:09:50.562Z,5.20
2018-01-14T01:12:18.053Z,5.20
2018-01-14T01:14:45.609Z,5.20
2018-01-14T01:17:13.167Z,5.20
2018-01-14T01:19:40.870Z,5.30
2018-01-14T01:22:08.517Z,5.40
2018-01-14T01:24:36.114Z,5.30
2018-01-14T01:27:03.668Z,5.40
2018-01-14T01:29:31.958Z,5.40
2018-01-14T01:31:59.461Z,5.40
2018-01-14T01:34:26.927Z,5.50
2018-01-14T01:36:54.490Z,5.50
2018-01-14T01:39:22.044Z,5.50
2018-01-14T01:41:49.598Z,5.40
2018-01-14T01:44:17.179Z,5.40
2018-01-14T01:46:44.714Z,5.30
2018-01-14T01:49:12.241Z,5.30
2018-01-14T01:51:39.748Z,5.30
2018-01-14T01:54:07.254Z,5.40
2018-01-14T01:56:34.712Z,5.40
2018-01-14T01:59:02.178Z,5.30
2018-01-14T02:01:29.887Z,5.20
2018-01-14T02:03:58.188Z,5.30
2018-01-14T02:06:26.451Z,5.30
2018-01-14T02:08:54.200Z,5.30
2018-01-14T02:11:21.746Z,5.30
2018-01-14T02:13:49.268Z,5.40
2018-01-14T02:16:16.723Z,5.40
2018-01-14T02:18:44.245Z,5.30
2018-01-14T02:21:11.874Z,5.20
2018-01-14T02:23:39.322Z,5.20
2018-01-14T02:26:07.680Z,5.40
2018-01-14T02:28:35.175Z,5.40
2018-01-14T02:31:02.801Z,5.40
2018-01-14T02:33:30.326Z,5.40
2018-01-14T02:35:58.535Z,5.40
2018-01-14T02:38:26.105Z,5.40
2018-01-14T02:40:53.661Z,5.40
2018-01-14T02:43:21.166Z,5.40
2018-01-14T02:45:48.714Z,5.40
2018-01-14T02:48:16.260Z,5.40
2018-01-14T02:50:43.900Z,5.30
2018-01-14T02:53:11.784Z,5.30
2018-01-14T02:55:39.325Z,5.30
2018-01-14T02:58:06.903Z,5.40
2018-01-14T03:00:34.438Z,5.30
2018-01-14T03:03:01.904Z,5.30
2018-01-14T03:05:29.468Z,5.30
2018-01-14T03:07:56.944Z,5.30
2018-01-14T03:10:24.458Z,5.30
2018-01-14T03:12:51.982Z,5.30
2018-01-14T03:15:19.553Z,5.30
2018-01-14T03:17:47.866Z,5.10
2018-01-14T03:20:15.407Z,5.10
2018-01-14T03:22:42.864Z,5.10
2018-01-14T03:25:10.417Z,5.00
2018-01-14T03:27:38.737Z,4.80
2018-01-14T03:30:06.286Z,4.80
2018-01-14T03:32:33.827Z,4.90
2018-01-14T03:35:02.032Z,4.80
2018-01-14T03:37:29.542Z,4.80
2018-01-14T03:39:57.853Z,4.70
2018-01-14T03:42:25.417Z,4.70
2018-01-14T03:44:52.945Z,4.70
2018-01-14T03:47:21.354Z,4.50
2018-01-14T03:49:48.906Z,4.50
2018-01-14T03:52:16.461Z,4.50
2018-01-14T03:54:43.965Z,4.60
2018-01-14T03:57:11.507Z,4.60
2018-01-14T03:59:38.968Z,4.50
2018-01-14T04:02:06.534Z,4.50
2018-01-14T04:04:34.102Z,4.50
2018-01-14T04:07:01.659Z,4.60
2018-01-14T04:09:29.290Z,4.60
2018-01-14T04:11:56.873Z,4.60
2018-01-14T04:14:24.389Z,4.60
2018-01-14T04:16:52.071Z,4.70
2018-01-14T04:19:22.281Z,4.60
2018-01-14T04:21:49.850Z,4.60
2018-01-14T04:24:17.297Z,4.60
2018-01-14T04:26:44.826Z,4.60
2018-01-14T04:29:13.163Z,4.70
2018-01-14T04:31:40.753Z,4.70
2018-01-14T04:34:08.314Z,4.90
2018-01-14T04:36:37.344Z,4.90
2018-01-14T04:39:05.647Z,4.90
2018-01-14T04:41:33.202Z,4.90
2018-01-14T04:44:00.774Z,5.00
2018-01-14T04:46:28.314Z,5.00
2018-01-14T04:48:55.827Z,5.00
2018-01-14T04:51:23.432Z,5.10
2018-01-14T04:53:50.956Z,5.10
2018-01-14T04:56:19.249Z,5.10
2018-01-14T04:58:47.422Z,5.10
2018-01-14T05:01:14.937Z,5.20
2018-01-14T05:03:42.569Z,5.20
2018-01-14T05:06:10.106Z,5.30
2018-01-14T05:08:37.651Z,5.20
2018-01-14T05:11:05.133Z,5.30
2018-01-14T05:13:32.613Z,5.30
2018-01-14T05:16:00.186Z,5.20
2018-01-14T05:18:27.746Z,5.20
2018-01-14T05:20:55.310Z,5.20
2018-01-14T05:23:22.875Z,5.20
2018-01-14T05:25:50.432Z,5.30
2018-01-14T05:28:17.976Z,5.30
2018-01-14T05:30:45.466Z,5.40
2018-01-14T05:33:12.948Z,5.50
2018-01-14T05:35:41.216Z,5.60
2018-01-14T05:38:09.632Z,5.50
2018-01-14T05:40:37.164Z,5.50
2018-01-14T05:43:04.781Z,5.50
2018-01-14T05:45:32.327Z,5.50
2018-01-14T05:47:59.891Z,5.40
2018-01-14T05:50:27.398Z,5.40
2018-01-14T05:52:55.650Z,5.40
2018-01-14T05:55:23.283Z,5.30
2018-01-14T05:57:50.849Z,5.40
2018-01-14T06:00:18.479Z,5.40
2018-01-14T06:02:45.988Z,5.30
2018-01-14T06:05:13.532Z,5.30
2018-01-14T06:07:41.037Z,5.30
2018-01-14T06:10:09.442Z,5.30
2018-01-14T06:12:37.101Z,5.30
2018-01-14T06:15:04.655Z,5.20
2018-01-14T06:17:32.831Z,5.30
2018-01-14T06:20:00.504Z,5.40
2018-01-14T06:22:28.054Z,5.30
2018-01-14T06:24:55.533Z,5.30
2018-01-14T06:27:23.056Z,5.40
2018-01-14T06:29:50.604Z,5.50
2018-01-14T06:32:18.932Z,5.50
2018-01-14T06:34:46.452Z,5.50
2018-01-14T06:37:13.987Z,5.50
2018-01-14T06:39:42.329Z,5.40
2018-01-14T06:42:09.914Z,5.40
2018-01-14T06:44:37.704Z,5.50
2018-01-14T06:47:05.401Z,5.50
2018-01-14T06:49:32.924Z,5.50
2018-01-14T06:52:01.567Z,5.50
2018-01-14T06:54:29.008Z,5.50
2018-01-14T06:56:56.560Z,5.50
2018-01-14T06:59:24.068Z,5.60
2018-01-14T07:01:52.369Z,5.60
2018-01-14T07:04:20.057Z,5.50
2018-01-14T07:06:47.730Z,5.50
2018-01-14T07:09:15.247Z,5.50
2018-01-14T07:11:43.615Z,5.50
2018-01-14T07:14:11.088Z,5.40
2018-01-14T07:16:38.634Z,5.50
2018-01-14T07:19:06.944Z,5.60
2018-01-14T07:21:34.452Z,5.60
2018-01-14T07:24:01.985Z,5.60
2018-01-14T07:26:29.624Z,5.50
2018-01-14T07:28:57.167Z,5.60
2018-01-14T07:31:24.698Z,5.70
2018-01-14T07:33:52.218Z,5.70
2018-01-14T07:36:19.656Z,5.80
2018-01-14T07:38:47.184Z,5.80
2018-01-14T07:41:15.542Z,5.80
2018-01-14T07:43:43.454Z,5.80
2018-01-14T07:46:11.010Z,5.90
2018-01-14T07:48:38.523Z,6.00
2018-01-14T07:51:06.114Z,6.00
2018-01-14T07:53:34.596Z,6.00
2018-01-14T07:56:02.873Z,6.10
2018-01-14T07:58:31.298Z,6.10
2018-01-14T08:00:58.802Z,6.10
2018-01-14T08:03:26.387Z,6.20
2018-01-14T08:05:53.966Z,6.20
2018-01-14T08:08:21.497Z,6.20
2018-01-14T08:10:49.054Z,6.20
2018-01-14T08:13:17.441Z,6.20
2018-01-14T08:15:44.997Z,6.20
2018-01-14T08:18:13.401Z,6.30
2018-01-14T08:20:40.933Z,6.30
2018-01-14T08:23:09.398Z,6.20
2018-01-14T08:25:37.967Z,6.20
2018-01-14T08:28:05.493Z,6.20
2018-01-14T08:30:33.087Z,6.20
2018-01-14T08:33:00.817Z,6.30
2018-01-14T08:35:28.279Z,6.30
2018-01-14T08:37:55.824Z,6.30
2018-01-14T08:40:23.424Z,6.30
2018-01-14T08:42:50.954Z,6.30
2018-01-14T08:45:18.510Z,6.40
2018-01-14T08:47:46.079Z,6.40
2018-01-14T08:50:14.375Z,6.50
2018-01-14T08:52:41.889Z,6.40
2018-01-14T08:55:09.372Z,6.40
2018-01-14T08:57:36.941Z,6.30
2018-01-14T09:00:04.428Z,6.30
2018-01-14T09:02:32.005Z,6.20
2018-01-14T09:05:00.363Z,6.20
2018-01-14T09:07:29.391Z,6.00
2018-01-14T09:09:56.950Z,6.00
2018-01-14T09:12:24.501Z,6.10
2018-01-14T09:14:52.134Z,6.20
2018-01-14T09:17:19.685Z,6.40
2018-01-14T09:19:47.234Z,6.40
2018-01-14T09:22:14.716Z,6.40
2018-01-14T09:24:42.241Z,6.40
2018-01-14T09:27:09.763Z,6.50
2018-01-14T09:29:37.275Z,6.50
2018-01-14T09:32:04.807Z,6.60
2018-01-14T09:34:32.360Z,6.60
2018-01-14T09:36:59.884Z,6.70
2018-01-14T09:39:27.411Z,6.80
2018-01-14T09:41:54.972Z,6.80
2018-01-14T09:44:22.517Z,6.80
2018-01-14T09:46:50.082Z,6.80
2018-01-14T09:49:18.414Z,6.90
2018-01-14T09:51:45.897Z,6.90
2018-01-14T09:54:13.518Z,6.90
2018-01-14T09:56:41.843Z,6.90
2018-01-14T09:59:09.421Z,6.90
2018-01-14T10:01:37.778Z,6.90
2018-01-14T10:04:05.329Z,6.90
2018-01-14T10:06:32.859Z,6.80
2018-01-14T10:09:00.422Z,6.80
2018-01-14T10:11:28.738Z,7.00
2018-01-14T10:13:56.324Z,7.00
2018-01-14T10:16:23.840Z,6.90
2018-01-14T10:18:51.317Z,6.90
2018-01-14T10:21:19.071Z,6.80
2018-01-14T10:23:46.631Z,6.70
2018-01-14T10:26:14.165Z,6.70
2018-01-14T10:28:41.692Z,6.80
2018-01-14T10:31:09.253Z,6.70
2018-01-14T10:33:36.772Z,6.70
2018-01-14T10:36:04.344Z,6.70
2018-01-14T10:38:31.962Z,6.70
2018-01-14T10:40:59.523Z,6.60
2018-01-14T10:43:27.081Z,6.40
2018-01-14T10:45:54.662Z,6.50
2018-01-14T10:48:22.224Z,6.70
2018-01-14T10:50:49.734Z,6.70
2018-01-14T10:53:17.282Z,6.60
2018-01-14T10:55:44.842Z,6.50
2018-01-14T10:58:12.386Z,6.70
2018-01-14T11:00:45.595Z,6.80
2018-01-14T11:03:13.062Z,6.80
2018-01-14T11:05:40.605Z,6.90
2018-01-14T11:08:09.633Z,7.00
2018-01-14T11:10:37.935Z,7.30
2018-01-14T11:13:05.704Z,7.30
2018-01-14T11:15:33.572Z,7.50
2018-01-14T11:18:01.129Z,7.60
2018-01-14T11:20:28.638Z,7.90
2018-01-14T11:22:56.134Z,8.20
2018-01-14T11:25:23.638Z,8.20
2018-01-14T11:27:53.205Z,8.20
2018-01-14T11:30:20.713Z,8.30
2018-01-14T11:32:48.269Z,8.60
2018-01-14T11:35:15.842Z,8.80
2018-01-14T11:37:43.386Z,9.00
2018-01-14T11:40:10.843Z,9.10
2018-01-14T11:42:38.365Z,9.10
2018-01-14T11:45:05.877Z,9.00
2018-01-14T11:47:33.435Z,9.40
2018-01-14T11:50:01.783Z,10.80
2018-01-14T11:52:29.379Z,10.80
2018-01-14T11:54:57.809Z,10.40
2018-01-14T11:57:25.359Z,10.40
2018-01-14T11:59:52.933Z,10.30
2018-01-14T12:02:20.453Z,10.20
2018-01-14T12:04:48.767Z,10.50
2018-01-14T12:07:16.256Z,10.50
2018-01-14T12:09:43.746Z,11.10
2018-01-14T12:12:11.336Z,11.60
2018-01-14T12:14:38.848Z,11.70
2018-01-14T12:17:06.389Z,12.10
2018-01-14T12:19:33.927Z,12.90
2018-01-14T12:22:01.471Z,13.60
2018-01-14T12:24:29.033Z,13.20
2018-01-14T12:26:56.566Z,12.60
2018-01-14T12:29:24.124Z,12.20
2018-01-14T12:31:51.610Z,11.90
2018-01-14T12:34:39.062Z,11.60
2018-01-14T12:37:06.604Z,11.30
2018-01-14T12:39:34.251Z,11.10
2018-01-14T12:42:01.764Z,11.30
2018-01-14T12:44:29.304Z,11.60
2018-01-14T12:46:56.934Z,12.00
2018-01-14T12:49:24.457Z,12.20
2018-01-14T12:51:52.761Z,11.30
2018-01-14T12:54:20.224Z,11.30
2018-01-14T12:56:47.830Z,10.80
2018-01-14T12:59:16.210Z,9.90
2018-01-14T13:01:45.512Z,9.80
2018-01-14T13:04:13.058Z,9.80
2018-01-14T13:06:40.596Z,9.40
2018-01-14T13:09:08.118Z,9.30
2018-01-14T13:11:35.651Z,9.30
2018-01-14T13:14:03.277Z,9.40
2018-01-14T13:16:30.795Z,9.50
2018-01-14T13:18:58.334Z,9.60
2018-01-14T13:21:26.002Z,9.50
2018-01-14T13:23:53.594Z,9.70
2018-01-14T13:26:21.072Z,9.70
2018-01-14T13:28:48.533Z,9.80
2018-01-14T13:31:16.117Z,10.40
2018-01-14T13:33:43.655Z,11.20
2018-01-14T13:36:11.214Z,11.90
2018-01-14T13:38:38.700Z,12.50
2018-01-14T13:41:06.267Z,12.80
2018-01-14T13:43:33.763Z,12.80
2018-01-14T13:46:01.230Z,13.10
2018-01-14T13:48:28.773Z,13.60
2018-01-14T13:50:56.318Z,13.70
2018-01-14T13:53:23.913Z,13.80
2018-01-14T13:55:51.446Z,13.50
2018-01-14T13:58:18.919Z,12.60
2018-01-14T14:00:46.504Z,11.80
2018-01-14T14:03:14.029Z,11.00
2018-01-14T14:05:41.612Z,10.50
2018-01-14T14:08:09.134Z,10.20
2018-01-14T14:10:36.589Z,9.90
2018-01-14T14:13:04.092Z,9.90
2018-01-14T14:15:32.341Z,9.70
2018-01-14T14:18:00.004Z,9.70
2018-01-14T14:20:27.533Z,9.70
2018-01-14T14:22:55.854Z,10.00
2018-01-14T14:25:23.321Z,10.00
2018-01-14T14:27:50.809Z,10.30
2018-01-14T14:30:18.311Z,11.20
2018-01-14T14:32:45.859Z,11.70
2018-01-14T14:35:14.133Z,12.80
2018-01-14T14:37:42.454Z,13.40
2018-01-14T14:40:09.993Z,13.30
2018-01-14T14:42:37.550Z,13.90
2018-01-14T14:45:05.094Z,13.90
2018-01-14T14:47:32.609Z,14.10
2018-01-14T14:50:00.176Z,13.90
2018-01-14T14:52:27.709Z,13.00
2018-01-14T14:54:55.224Z,12.00
2018-01-14T14:57:23.578Z,10.00
2018-01-14T14:59:51.141Z,9.90
2018-01-14T15:02:18.668Z,9.20
2018-01-14T15:04:46.857Z,8.60
2018-01-14T15:07:14.365Z,8.40
2018-01-14T15:09:42.607Z,8.10
2018-01-14T15:12:10.106Z,8.10
2018-01-14T15:14:37.807Z,8.00
2018-01-14T15:17:05.369Z,7.90
2018-01-14T15:19:32.814Z,7.80
2018-01-14T15:22:00.328Z,7.70
2018-01-14T15:24:28.633Z,7.70
2018-01-14T15:26:56.205Z,7.60
2018-01-14T15:29:23.778Z,7.60
2018-01-14T15:31:51.332Z,7.20
2018-01-14T15:34:18.833Z,7.10
2018-01-14T15:36:47.160Z,7.10
2018-01-14T15:39:14.690Z,7.10
2018-01-14T15:41:42.203Z,7.10
2018-01-14T15:44:09.763Z,7.10
2018-01-14T15:46:37.309Z,7.00
2018-01-14T15:49:05.050Z,7.00
2018-01-14T15:51:32.682Z,6.60
2018-01-14T15:54:00.958Z,6.60
2018-01-14T15:56:29.236Z,6.60
2018-01-14T15:58:57.545Z,6.50
2018-01-14T16:01:25.110Z,6.50
2018-01-14T16:03:52.642Z,6.50
2018-01-14T16:06:21.046Z,6.50
2018-01-14T16:08:48.629Z,6.50
2018-01-14T16:11:16.204Z,6.50
2018-01-14T16:13:43.701Z,6.50
2018-01-14T16:16:11.985Z,6.40
2018-01-14T16:18:39.509Z,6.40
2018-01-14T16:21:08.581Z,6.30
2018-01-14T16:23:36.096Z,6.30
2018-01-14T16:26:03.641Z,6.10
2018-01-14T16:28:31.967Z,6.20
2018-01-14T16:30:59.495Z,6.20
2018-01-14T16:33:27.172Z,6.10
2018-01-14T16:35:54.736Z,6.10
2018-01-14T16:38:22.301Z,6.10
2018-01-14T16:40:49.853Z,6.10
2018-01-14T16:43:18.002Z,6.10
2018-01-14T16:45:45.523Z,6.00
2018-01-14T16:48:13.123Z,5.70
2018-01-14T16:50:40.609Z,5.80
2018-01-14T16:53:08.170Z,5.70
2018-01-14T16:55:35.752Z,5.70
2018-01-14T16:58:03.328Z,5.80
2018-01-14T17:00:30.834Z,5.80
2018-01-14T17:02:58.439Z,5.80
2018-01-14T17:05:25.996Z,5.90
2018-01-14T17:07:53.645Z,5.90
2018-01-14T17:10:21.250Z,5.90
2018-01-14T17:12:49.624Z,5.90
2018-01-14T17:15:17.921Z,6.00
2018-01-14T17:17:46.255Z,6.00
2018-01-14T17:20:14.823Z,6.00
2018-01-14T17:22:42.651Z,5.90
2018-01-14T17:25:10.193Z,5.90
2018-01-14T17:27:38.554Z,5.70
2018-01-14T17:30:06.057Z,5.70
2018-01-14T17:32:33.556Z,5.70
2018-01-14T17:35:01.040Z,5.70
2018-01-14T17:37:29.422Z,5.60
2018-01-14T17:39:57.124Z,5.60
2018-01-14T17:42:25.188Z,5.60
2018-01-14T17:44:52.694Z,5.60
2018-01-14T17:47:20.175Z,5.60
2018-01-14T17:49:49.429Z,5.70
2018-01-14T17:52:16.989Z,5.60
2018-01-14T17:54:44.552Z,5.70
2018-01-14T17:57:12.134Z,5.70
2018-01-14T17:59:39.732Z,5.70
2018-01-14T18:02:07.293Z,5.70
2018-01-14T18:04:34.792Z,5.70
2018-01-14T18:07:02.313Z,5.70
2018-01-14T18:09:29.858Z,5.60
2018-01-14T18:11:57.486Z,5.60
2018-01-14T18:14:25.003Z,5.60
2018-01-14T18:17:00.336Z,5.70
2018-01-14T18:19:27.910Z,5.50
2018-01-14T18:21:55.436Z,5.60
2018-01-14T18:24:23.030Z,5.60
2018-01-14T18:26:50.537Z,5.60
2018-01-14T18:29:18.838Z,5.50
2018-01-14T18:31:47.160Z,5.50
2018-01-14T18:34:14.699Z,5.50
2018-01-14T18:36:42.256Z,5.50
2018-01-14T18:39:09.776Z,5.50
2018-01-14T18:41:37.330Z,5.50
2018-01-14T18:44:05.621Z,5.60
2018-01-14T18:46:34.009Z,5.50
2018-01-14T18:49:01.662Z,5.50
2018-01-14T18:51:29.943Z,5.60
2018-01-14T18:53:57.540Z,5.60
2018-01-14T18:56:25.049Z,5.60
2018-01-14T18:58:52.738Z,5.60
2018-01-14T19:01:20.257Z,5.60
2018-01-14T19:03:47.791Z,5.60
2018-01-14T19:06:15.358Z,5.60
2018-01-14T19:08:42.832Z,5.50
2018-01-14T19:11:10.413Z,5.50
2018-01-14T19:13:37.863Z,5.50
2018-01-14T19:16:05.415Z,5.50
2018-01-14T19:18:32.900Z,5.60
2018-01-14T19:21:01.215Z,5.50
2018-01-14T19:23:28.805Z,5.50
2018-01-14T19:25:56.352Z,5.40
2018-01-14T19:28:23.965Z,5.40
2018-01-14T19:30:51.469Z,5.50
2018-01-14T19:33:19.018Z,5.50
2018-01-14T19:35:46.537Z,5.50
2018-01-14T19:38:14.047Z,5.50
2018-01-14T19:40:41.582Z,5.40
2018-01-14T19:43:10.567Z,5.40
2018-01-14T19:45:38.065Z,5.40
2018-01-14T19:48:05.638Z,5.50
2018-01-14T19:50:33.249Z,5.40
2018-01-14T19:53:00.742Z,5.50
2018-01-14T19:55:29.196Z,5.40
2018-01-14T19:57:56.753Z,5.30
2018-01-14T20:00:24.223Z,5.40
2018-01-14T20:02:51.798Z,5.40
2018-01-14T20:05:19.379Z,5.50
2018-01-14T20:07:46.924Z,5.40
2018-01-14T20:10:14.462Z,5.30
2018-01-14T20:12:41.908Z,5.30
2018-01-14T20:15:09.458Z,5.30
2018-01-14T20:17:36.965Z,5.40
2018-01-14T20:20:04.510Z,5.40
2018-01-14T20:22:32.013Z,5.40
2018-01-14T20:24:59.520Z,5.40
2018-01-14T20:27:27.055Z,5.40
2018-01-14T20:29:55.133Z,5.50
2018-01-14T20:32:22.887Z,5.40
2018-01-14T20:34:50.552Z,5.40
2018-01-14T20:37:18.455Z,5.40
2018-01-14T20:39:45.970Z,5.30
2018-01-14T20:42:13.566Z,5.40
2018-01-14T20:44:46.770Z,5.40
2018-01-14T20:47:14.375Z,5.30
2018-01-14T20:49:42.071Z,5.20
2018-01-14T20:52:09.558Z,5.30
2018-01-14T20:54:37.062Z,5.30
2018-01-14T20:57:04.829Z,5.20
2018-01-14T20:59:32.467Z,5.20
2018-01-14T21:01:59.989Z,5.20
2018-01-14T21:04:30.251Z,5.20
2018-01-14T21:06:57.812Z,5.30
2018-01-14T21:09:25.347Z,5.30
2018-01-14T21:11:54.361Z,5.40
2018-01-14T21:14:22.638Z,5.40
2018-01-14T21:16:50.228Z,5.40
2018-01-14T21:19:17.752Z,5.40
2018-01-14T21:21:46.047Z,5.50
2018-01-14T21:24:13.576Z,5.50
2018-01-14T21:26:41.954Z,5.40
2018-01-14T21:29:10.288Z,5.40
2018-01-14T21:31:37.995Z,5.40
2018-01-14T21:34:05.548Z,5.40
2018-01-14T21:36:33.115Z,5.60
2018-01-14T21:39:00.797Z,5.50
2018-01-14T21:41:28.359Z,5.40
2018-01-14T21:43:56.737Z,5.30
2018-01-14T21:46:24.281Z,5.30
2018-01-14T21:48:52.575Z,5.30
2018-01-14T21:51:20.907Z,5.40
2018-01-14T21:53:48.359Z,5.40
2018-01-14T21:56:15.853Z,5.40
2018-01-14T21:58:43.394Z,5.40
2018-01-14T22:01:10.913Z,5.30
2018-01-14T22:03:38.536Z,5.30
2018-01-14T22:06:06.872Z,5.20
2018-01-14T22:08:34.382Z,5.20
2018-01-14T22:11:01.882Z,5.20
2018-01-14T22:13:29.429Z,5.20
2018-01-14T22:15:57.003Z,5.10
2018-01-14T22:18:24.837Z,5.00
2018-01-14T22:20:52.330Z,5.00
2018-01-14T22:23:19.972Z,5.00
2018-01-14T22:25:47.507Z,5.00
2018-01-14T22:28:15.019Z,4.90
2018-01-14T22:30:42.570Z,5.00
2018-01-14T22:33:10.122Z,5.00
2018-01-14T22:35:37.649Z,4.90
2018-01-14T22:38:05.179Z,4.90
2018-01-14T22:40:32.734Z,4.90
2018-01-14T22:43:00.413Z,4.80
2018-01-14T22:45:27.964Z,4.80
2018-01-14T22:47:56.281Z,5.00
2018-01-14T22:50:23.817Z,5.00
2018-01-14T22:52:51.644Z,5.00
2018-01-14T22:55:19.202Z,5.00
2018-01-14T22:57:46.637Z,4.90
2018-01-14T23:00:14.208Z,5.00
2018-01-14T23:02:41.804Z,5.10
2018-01-14T23:05:10.121Z,5.10
2018-01-14T23:07:37.621Z,5.10
2018-01-14T23:10:05.263Z,5.10
2018-01-14T23:12:32.827Z,5.10
2018-01-14T23:15:06.041Z,5.10
2018-01-14T23:17:33.635Z,5.00
2018-01-14T23:20:01.188Z,5.00
2018-01-14T23:22:28.944Z,4.90
2018-01-14T23:24:56.342Z,5.00
2018-01-14T23:27:23.859Z,5.00
2018-01-14T23:29:51.309Z,5.00
2018-01-14T23:32:19.627Z,5.00
2018-01-14T23:34:47.198Z,5.00
2018-01-14T23:37:14.749Z,5.00
2018-01-14T23:39:42.278Z,5.10
2018-01-14T23:42:10.604Z,5.10
2018-01-14T23:44:38.204Z,5.10
2018-01-14T23:47:06.472Z,5.00
2018-01-14T23:49:34.038Z,5.00
2018-01-14T23:52:01.569Z,5.10
2018-01-14T23:54:29.117Z,5.10
2018-01-14T23:56:56.651Z,5.20
2018-01-14T23:59:24.329Z,5.20
